METAR Data
IDs: Format: Raw Decoded Include TAF

Data at: 0239 UTC 25 Jan 2020

METAR for:KBRL (Burlington/SE Iowa R, IA, US)
Text:KBRL 250233Z AUTO 31006KT 2 1/2SM BR OVC005 01/M01 A2988 RMK AO2 SNE09 P0000 T00061011 $
Temperature: 0.6°C ( 33°F)
Dewpoint: -1.1°C ( 30°F) [RH = 88%]
Pressure (altimeter):29.88 inches Hg (1011.9 mb)
Winds:from the NW (310 degrees) at 7 MPH (6 knots; 3.1 m/s)
Visibility: 2.50 sm ( 4.02 km)
Ceiling:500 feet AGL
Clouds: overcast cloud deck at 500 feet AGL
Weather:BR (mist)
QC Flag:automated observation with no human augmentation; SOME DATA ABOVE MAY BE INACCURATE!!!"$" is an indication the sensor requires maintenance.